• Join FlightAware (Why Join?)
  • Login
  • US Flag 
06:51PM EDT


 

Airport Tracker/Info


-or-


 

Live Flight TrackerFlight Track Log ✈ N580HC ✈ 06-Nov-2013 ✈ KPSC - KLBF

Flight Track Log - Related Links

Times and Time Zones

All times are in EST time to prevent confusion due to time zone crossing. See the N580HC flight status page for this flight to view local times or setup timezone preferences in your user account.

Time Position Orientation Groundspeed Altitude Reporting Facility
EST Latitude Longitude Course Direction KTS MPH feet Rate Location/Type
06:42PM 46.2119 -119.0444 106° East 259 298 4,800  Level Seattle Center
06:43PM 46.1964 -118.9328 101° East 285 328 8,500 2,820 Climbing Seattle Center
06:44PM 46.1717 -118.8050 106° East 332 382 10,600 2,160 Climbing Seattle Center
06:45PM 46.1439 -118.6597 105° East 371 427 13,000 2,340 Climbing Seattle Center
06:46PM 46.1161 -118.4942 104° East 390 449 15,400 2,160 Climbing Seattle Center
06:47PM 46.0854 -118.1430 106° East  Level Estimated
06:47PM 46.0872 -118.3397 105° East 401 461 17,500  Level Seattle Center
06:48PM 46.0603 -118.1831 104° East 404 465 19,200 1,860 Climbing Seattle Center
06:49PM 46.0286 -118.0181 105° East 423 487 21,300 2,040 Climbing Seattle Center
06:50PM 45.9958 -117.8489 106° East 438 504 23,400 2,040 Climbing Seattle Center
06:51PM 45.9633 -117.6783 105° East 444 511 25,500 2,040 Climbing Seattle Center
06:52PM 45.9300 -117.5061 105° East 448 516 27,600 2,040 Climbing Seattle Center
06:53PM 45.8972 -117.3344 105° East 449 517 29,700 2,040 Climbing Seattle Center
06:54PM 45.8642 -117.1644 106° East 446 513 31,800 1,980 Climbing Seattle Center
06:55PM 45.8308 -116.9997 106° East 436 502 33,800 1,860 Climbing Seattle Center
06:56PM 45.7908 -116.7994 106° East 437 503 35,600 1,560 Climbing Seattle Center
06:57PM 45.7575 -116.6325 106° East 438 504 37,000 1,320 Climbing Seattle Center
06:58PM 45.7228 -116.4631 106° East 444 511 38,400 1,260 Climbing Seattle Center
06:59PM 45.6889 -116.2961 106° East 441 507 39,600 1,140 Climbing Seattle Center
07:00PM 45.6539 -116.1311 107° East 436 502 40,800 660 Climbing Seattle Center
07:01PM 45.6228 -115.9728 106° East 441 507 41,000 60 Climbing Seattle Center
07:02PM 45.5767 -115.7586 107° East 467 537 41,000  Level Seattle Center
07:03PM 45.5386 -115.5728 106° East 485 558 41,000  Level Seattle Center
07:04PM 45.4969 -115.3833 107° East 498 573 41,000  Level Seattle Center
07:05PM 45.4561 -115.1933 107° East 500 575 41,000  Level Seattle Center
07:06PM 45.4153 -115.0064 107° East 496 571 41,000  Level Seattle Center
07:07PM 45.3744 -114.8208 107° East 494 568 41,000  Level Seattle Center
07:08PM 45.3328 -114.6369 108° East 490 564 41,000  Level Seattle Center
07:09PM 45.2922 -114.4525 107° East 490 564 41,000  Level Seattle Center
07:10PM 45.2503 -114.2681 108° East 490 564 41,000  Level Seattle Center
07:11PM 45.2081 -114.0831 108° East 492 566 41,000  Level Seattle Center
07:12PM 45.1664 -113.8992 108° East 491 565 41,000  Level Seattle Center
07:13PM 45.1242 -113.7161 108° East 489 563 41,000  Level Seattle Center
07:15PM 45.0519 -113.4089 108° East 496 571 41,000  Level Salt Lake Center
07:16PM 45.0094 -113.2331 109° East 496 571 41,000  Level Salt Lake Center
07:17PM 44.9683 -113.0572 108° East 494 568 41,000  Level Salt Lake Center
07:18PM 44.9206 -112.8544 108° East 488 562 41,000  Level Salt Lake Center
07:19PM 44.8778 -112.6811 109° East 490 564 41,000  Level Salt Lake Center
07:20PM 44.8286 -112.4803 109° East 487 560 41,000  Level Salt Lake Center
07:21PM 44.7867 -112.3086 109° East 486 559 41,000  Level Salt Lake Center
07:22PM 44.7372 -112.1083 109° East 485 558 41,000  Level Salt Lake Center
07:23PM 44.6933 -111.9350 110° East 490 564 41,000  Level Salt Lake Center
07:24PM 44.6428 -111.7356 110° East 487 560 41,000  Level Salt Lake Center
07:25PM 44.5986 -111.5642 110° East 487 560 41,000  Level Salt Lake Center
07:26PM 44.5514 -111.3767 109° East 494 568 41,000  Level Salt Lake Center
07:27PM 44.5075 -111.2075 110° East 485 558 41,000  Level Salt Lake Center
07:28PM 44.4542 -111.0072 110° East 492 566 41,000  Level Salt Lake Center
07:29PM 44.4094 -110.8361 110° East 489 563 41,000  Level Salt Lake Center
07:30PM 44.3556 -110.6336 110° East 497 572 41,000  Level Salt Lake Center
07:31PM 44.3097 -110.4592 110° East 503 579 41,000  Level Salt Lake Center
07:32PM 44.2564 -110.2597 110° East 495 570 41,000  Level Salt Lake Center
07:33PM 44.2086 -110.0844 111° Southeast 503 579 41,000  Level Salt Lake Center
07:34PM 44.1614 -109.9108 111° Southeast 502 578 41,000  Level Salt Lake Center
07:35PM 44.1058 -109.7125 111° Southeast 495 570 41,000  Level Salt Lake Center
07:36PM 44.0594 -109.5433 111° Southeast 491 565 41,000  Level Salt Lake Center
07:37PM 44.0039 -109.3472 111° Southeast 486 559 41,000  Level Salt Lake Center
07:39PM 43.9542 -109.1700 111° Southeast 493 567 41,000  Level Salt Lake Center
07:40PM 43.9050 -108.9964 111° Southeast 489 563 41,000  Level Salt Lake Center
07:41PM 43.8550 -108.8214 112° Southeast 491 565 41,000  Level Salt Lake Center
07:42PM 43.8050 -108.6472 112° Southeast 492 566 41,000  Level Salt Lake Center
07:43PM 43.7447 -108.4383 112° Southeast 490 564 41,000  Level Salt Lake Center
07:44PM 43.6936 -108.2653 112° Southeast 489 563 41,000  Level Salt Lake Center
07:45PM 43.6417 -108.0914 112° Southeast 492 566 41,000  Level Salt Lake Center
07:46PM 43.5906 -107.9186 112° Southeast 490 564 41,000  Level Salt Lake Center
07:47PM 43.5397 -107.7442 112° Southeast 492 566 41,000  Level Salt Lake Center
07:48PM 43.4872 -107.5703 113° Southeast 494 568 41,000  Level Salt Lake Center
07:49PM 43.4250 -107.3622 112° Southeast 493 567 41,000  Level Salt Lake Center
07:50PM 43.3725 -107.1919 113° Southeast 487 560 41,000  Level Salt Lake Center
07:51PM 43.3203 -107.0217 113° Southeast 486 559 41,000  Level Salt Lake Center
07:52PM 43.2625 -106.8339 113° Southeast 481 554 41,000  Level Salt Lake Center
07:53PM 43.2119 -106.6703 113° Southeast 485 558 41,000  Level Salt Lake Center
07:54PM 43.1606 -106.5058 113° Southeast 491 565 41,000  Level Salt Lake Center
07:55PM 43.1022 -106.3142 113° Southeast 490 564 41,000  Level Salt Lake Center
07:56PM 43.0497 -106.1522 114° Southeast 486 559 41,000  Level Salt Lake Center
07:57PM 42.9886 -105.9650 114° Southeast 484 557 41,000  Level Salt Lake Center
07:58PM 42.9294 -105.7786 113° Southeast 480 552 41,000  Level Denver Center
07:59PM 42.8803 -105.6214 113° Southeast 473 544 41,000  Level Denver Center
08:00PM 42.8203 -105.4411 114° Southeast 468 539 41,000  Level Denver Center
08:01PM 42.7694 -105.2867 114° Southeast 466 536 41,000  Level Denver Center
08:02PM 42.7097 -105.1067 114° Southeast 468 539 41,000  Level Denver Center
08:03PM 42.6586 -104.9519 114° Southeast 470 541 41,000  Level Denver Center
08:04PM 42.5989 -104.7736 114° Southeast 469 540 41,000  Level Denver Center
08:05PM 42.5486 -104.6217 114° Southeast 468 539 41,000 -60 Level Denver Center
08:06PM 42.4906 -104.4486 114° Southeast 471 542 40,900 -660 Descending Denver Center
08:07PM 42.4378 -104.2947 115° Southeast 472 543 39,700 -1,380 Descending Denver Center
08:09PM 42.3742 -104.1072 115° Southeast 491 565 38,100 -1,440 Descending Denver Center
08:10PM 42.3178 -103.9450 115° Southeast 498 573 36,800 -1,440 Descending Denver Center
08:11PM 42.2514 -103.7514 115° Southeast 507 583 35,200 -900 Descending Denver Center
08:12PM 42.1925 -103.5858 116° Southeast 512 589 35,000 -1,020 Descending Denver Center
08:13PM 42.1242 -103.3900 115° Southeast 518 596 33,100 -1,860 Descending Denver Center
08:14PM 42.0653 -103.2239 115° Southeast 515 593 31,200 -2,040 Descending Denver Center
08:15PM 41.9975 -103.0281 115° Southeast 517 595 28,900 -2,040 Descending Denver Center
08:16PM 41.9378 -102.8619 116° Southeast 517 595 27,100 -960 Descending Denver Center
08:17PM 41.8647 -102.6628 116° Southeast 530 610 27,000 -180 Descending Denver Center
08:18PM 41.8025 -102.4922 116° Southeast 532 612 26,800 -1,260 Descending Denver Center
08:19PM 41.7361 -102.3086 116° Southeast 524 603 24,400 -2,340 Descending Denver Center
08:20PM 41.6722 -102.1253 115° Southeast 488 562 22,000 -2,100 Descending Denver Center
08:21PM 41.6181 -101.9792 116° Southeast 462 532 20,100 -1,800 Descending Denver Center
08:22PM 41.5658 -101.8436 117° Southeast 429 494 18,300 -1,860 Descending Denver Center
08:23PM 41.5119 -101.6883 115° Southeast 414 476 16,300 -1,920 Descending Denver Center
08:24PM 41.4639 -101.5603 117° Southeast 405 466 14,400 -1,980 Descending Denver Center
08:25PM 41.4139 -101.4156 115° Southeast 386 444 12,300 -1,980 Descending Denver Center
08:26PM 41.3747 -101.3044 115° Southeast 356 410 10,400 -1,860 Descending Denver Center
08:27PM 41.3339 -101.1919 116° Southeast 309 356 8,500 -1,680 Descending Denver Center
08:28PM 41.3022 -101.1044 116° Southeast 289 333 7,000 -1,380 Descending Denver Center
08:29PM 41.2694 -101.0125 115° Southeast 263 303 5,700 -1,080 Descending Denver Center
08:30PM 41.2431 -100.9411 116° Southeast 241 277 4,800 -900 Descending Denver Center